<?xml version="1.0" encoding="UTF-8" standalone="no" ?>
<gpx xmlns="http://www.topografix.com/GPX/1/1" xmlns:xsi="http://www.w3.org/2001/XMLSchema-instance" xsi:schemaLocation="http://www.topografix.com/GPX/1/1 http://www.topografix.com/GPX/1/1/gpx.xsd" version="1.1" creator="VisuGPX - https://www.visugpx.com">
  <metadata>
    <name>Trail des fluo rupt</name>
  </metadata>
  <trk>
    <name><![CDATA[Trail Pei-17917462]]></name>
    <trkseg>
      <trkpt lat="47.92679" lon="6.66">
        <ele>423</ele>
        <time>2023-11-07T04:33:10Z</time>
      </trkpt>
      <trkpt lat="47.92655" lon="6.66026">
        <ele>423</ele>
        <time>2023-11-07T04:33:25Z</time>
      </trkpt>
      <trkpt lat="47.92569" lon="6.66102">
        <ele>423</ele>
        <time>2023-11-07T04:34:15Z</time>
      </trkpt>
      <trkpt lat="47.9255" lon="6.66123">
        <ele>424</ele>
        <time>2023-11-07T04:34:27Z</time>
      </trkpt>
      <trkpt lat="47.92608" lon="6.66231">
        <ele>425</ele>
        <time>2023-11-07T04:35:13Z</time>
      </trkpt>
      <trkpt lat="47.92664" lon="6.66325">
        <ele>430</ele>
        <time>2023-11-07T04:35:55Z</time>
      </trkpt>
      <trkpt lat="47.92654" lon="6.66341">
        <ele>432</ele>
        <time>2023-11-07T04:36:03Z</time>
      </trkpt>
      <trkpt lat="47.92643" lon="6.66344">
        <ele>432</ele>
        <time>2023-11-07T04:36:08Z</time>
      </trkpt>
      <trkpt lat="47.92605" lon="6.66346">
        <ele>431</ele>
        <time>2023-11-07T04:36:27Z</time>
      </trkpt>
      <trkpt lat="47.9257" lon="6.66413">
        <ele>438</ele>
        <time>2023-11-07T04:36:56Z</time>
      </trkpt>
      <trkpt lat="47.92561" lon="6.66421">
        <ele>438</ele>
        <time>2023-11-07T04:37:01Z</time>
      </trkpt>
      <trkpt lat="47.92549" lon="6.66442">
        <ele>442</ele>
        <time>2023-11-07T04:37:10Z</time>
      </trkpt>
      <trkpt lat="47.92528" lon="6.66484">
        <ele>448</ele>
        <time>2023-11-07T04:37:28Z</time>
      </trkpt>
      <trkpt lat="47.92485" lon="6.66487">
        <ele>444</ele>
        <time>2023-11-07T04:37:49Z</time>
      </trkpt>
      <trkpt lat="47.92472" lon="6.66491">
        <ele>443</ele>
        <time>2023-11-07T04:37:56Z</time>
      </trkpt>
      <trkpt lat="47.92467" lon="6.66562">
        <ele>453</ele>
        <time>2023-11-07T04:38:20Z</time>
      </trkpt>
      <trkpt lat="47.92473" lon="6.66583">
        <ele>457</ele>
        <time>2023-11-07T04:38:28Z</time>
      </trkpt>
      <trkpt lat="47.92429" lon="6.66593">
        <ele>453</ele>
        <time>2023-11-07T04:38:50Z</time>
      </trkpt>
      <trkpt lat="47.924" lon="6.66616">
        <ele>451</ele>
        <time>2023-11-07T04:39:06Z</time>
      </trkpt>
      <trkpt lat="47.92375" lon="6.66628">
        <ele>448</ele>
        <time>2023-11-07T04:39:19Z</time>
      </trkpt>
      <trkpt lat="47.92373" lon="6.66643">
        <ele>449</ele>
        <time>2023-11-07T04:39:25Z</time>
      </trkpt>
      <trkpt lat="47.92375" lon="6.66674">
        <ele>452</ele>
        <time>2023-11-07T04:39:35Z</time>
      </trkpt>
      <trkpt lat="47.92396" lon="6.66675">
        <ele>455</ele>
        <time>2023-11-07T04:39:46Z</time>
      </trkpt>
      <trkpt lat="47.92412" lon="6.66673">
        <ele>457</ele>
        <time>2023-11-07T04:39:54Z</time>
      </trkpt>
      <trkpt lat="47.92445" lon="6.66676">
        <ele>463</ele>
        <time>2023-11-07T04:40:10Z</time>
      </trkpt>
      <trkpt lat="47.92461" lon="6.66684">
        <ele>469</ele>
        <time>2023-11-07T04:40:19Z</time>
      </trkpt>
      <trkpt lat="47.92476" lon="6.66671">
        <ele>468</ele>
        <time>2023-11-07T04:40:27Z</time>
      </trkpt>
      <trkpt lat="47.92476" lon="6.66703">
        <ele>476</ele>
        <time>2023-11-07T04:40:38Z</time>
      </trkpt>
      <trkpt lat="47.92472" lon="6.6672">
        <ele>479</ele>
        <time>2023-11-07T04:40:44Z</time>
      </trkpt>
      <trkpt lat="47.92467" lon="6.66733">
        <ele>481</ele>
        <time>2023-11-07T04:40:49Z</time>
      </trkpt>
      <trkpt lat="47.92447" lon="6.66763">
        <ele>485</ele>
        <time>2023-11-07T04:41:03Z</time>
      </trkpt>
      <trkpt lat="47.92431" lon="6.66794">
        <ele>492</ele>
        <time>2023-11-07T04:41:16Z</time>
      </trkpt>
      <trkpt lat="47.92431" lon="6.66804">
        <ele>495</ele>
        <time>2023-11-07T04:41:20Z</time>
      </trkpt>
      <trkpt lat="47.92422" lon="6.66824">
        <ele>501</ele>
        <time>2023-11-07T04:41:28Z</time>
      </trkpt>
      <trkpt lat="47.92431" lon="6.66829">
        <ele>504</ele>
        <time>2023-11-07T04:41:33Z</time>
      </trkpt>
      <trkpt lat="47.92443" lon="6.66828">
        <ele>506</ele>
        <time>2023-11-07T04:41:39Z</time>
      </trkpt>
      <trkpt lat="47.92456" lon="6.66816">
        <ele>505</ele>
        <time>2023-11-07T04:41:46Z</time>
      </trkpt>
      <trkpt lat="47.92467" lon="6.6681">
        <ele>505</ele>
        <time>2023-11-07T04:41:52Z</time>
      </trkpt>
      <trkpt lat="47.92491" lon="6.66791">
        <ele>504</ele>
        <time>2023-11-07T04:42:06Z</time>
      </trkpt>
      <trkpt lat="47.92498" lon="6.66783">
        <ele>503</ele>
        <time>2023-11-07T04:42:10Z</time>
      </trkpt>
      <trkpt lat="47.92515" lon="6.66775">
        <ele>507</ele>
        <time>2023-11-07T04:42:19Z</time>
      </trkpt>
      <trkpt lat="47.92518" lon="6.66787">
        <ele>511</ele>
        <time>2023-11-07T04:42:23Z</time>
      </trkpt>
      <trkpt lat="47.92516" lon="6.66806">
        <ele>516</ele>
        <time>2023-11-07T04:42:30Z</time>
      </trkpt>
      <trkpt lat="47.92499" lon="6.66862">
        <ele>527</ele>
        <time>2023-11-07T04:42:50Z</time>
      </trkpt>
      <trkpt lat="47.92484" lon="6.66899">
        <ele>535</ele>
        <time>2023-11-07T04:43:05Z</time>
      </trkpt>
      <trkpt lat="47.92464" lon="6.66938">
        <ele>543</ele>
        <time>2023-11-07T04:43:21Z</time>
      </trkpt>
      <trkpt lat="47.92446" lon="6.66933">
        <ele>538</ele>
        <time>2023-11-07T04:43:31Z</time>
      </trkpt>
      <trkpt lat="47.92396" lon="6.66949">
        <ele>537</ele>
        <time>2023-11-07T04:43:56Z</time>
      </trkpt>
      <trkpt lat="47.92383" lon="6.66961">
        <ele>539</ele>
        <time>2023-11-07T04:44:04Z</time>
      </trkpt>
      <trkpt lat="47.92361" lon="6.67006">
        <ele>549</ele>
        <time>2023-11-07T04:44:22Z</time>
      </trkpt>
      <trkpt lat="47.92352" lon="6.6703">
        <ele>555</ele>
        <time>2023-11-07T04:44:32Z</time>
      </trkpt>
      <trkpt lat="47.92347" lon="6.67034">
        <ele>556</ele>
        <time>2023-11-07T04:44:34Z</time>
      </trkpt>
      <trkpt lat="47.92318" lon="6.67033">
        <ele>552</ele>
        <time>2023-11-07T04:44:49Z</time>
      </trkpt>
      <trkpt lat="47.92299" lon="6.67045">
        <ele>555</ele>
        <time>2023-11-07T04:44:59Z</time>
      </trkpt>
      <trkpt lat="47.92286" lon="6.67058">
        <ele>558</ele>
        <time>2023-11-07T04:45:07Z</time>
      </trkpt>
      <trkpt lat="47.92241" lon="6.67092">
        <ele>565</ele>
        <time>2023-11-07T04:45:32Z</time>
      </trkpt>
      <trkpt lat="47.92265" lon="6.67095">
        <ele>567</ele>
        <time>2023-11-07T04:45:44Z</time>
      </trkpt>
      <trkpt lat="47.92284" lon="6.67104">
        <ele>569</ele>
        <time>2023-11-07T04:45:54Z</time>
      </trkpt>
      <trkpt lat="47.92304" lon="6.6712">
        <ele>573</ele>
        <time>2023-11-07T04:46:06Z</time>
      </trkpt>
      <trkpt lat="47.92321" lon="6.67139">
        <ele>577</ele>
        <time>2023-11-07T04:46:16Z</time>
      </trkpt>
      <trkpt lat="47.92328" lon="6.67142">
        <ele>578</ele>
        <time>2023-11-07T04:46:20Z</time>
      </trkpt>
      <trkpt lat="47.92343" lon="6.67135">
        <ele>579</ele>
        <time>2023-11-07T04:46:28Z</time>
      </trkpt>
      <trkpt lat="47.92379" lon="6.67091">
        <ele>579</ele>
        <time>2023-11-07T04:46:51Z</time>
      </trkpt>
      <trkpt lat="47.92395" lon="6.67066">
        <ele>575</ele>
        <time>2023-11-07T04:47:03Z</time>
      </trkpt>
      <trkpt lat="47.92409" lon="6.67052">
        <ele>573</ele>
        <time>2023-11-07T04:47:11Z</time>
      </trkpt>
      <trkpt lat="47.92454" lon="6.67022">
        <ele>570</ele>
        <time>2023-11-07T04:47:36Z</time>
      </trkpt>
      <trkpt lat="47.92475" lon="6.66987">
        <ele>561</ele>
        <time>2023-11-07T04:47:52Z</time>
      </trkpt>
      <trkpt lat="47.9249" lon="6.66985">
        <ele>563</ele>
        <time>2023-11-07T04:47:59Z</time>
      </trkpt>
      <trkpt lat="47.92495" lon="6.6697">
        <ele>559</ele>
        <time>2023-11-07T04:48:05Z</time>
      </trkpt>
      <trkpt lat="47.92495" lon="6.66944">
        <ele>551</ele>
        <time>2023-11-07T04:48:14Z</time>
      </trkpt>
      <trkpt lat="47.92527" lon="6.66859">
        <ele>536</ele>
        <time>2023-11-07T04:48:46Z</time>
      </trkpt>
      <trkpt lat="47.92536" lon="6.66842">
        <ele>534</ele>
        <time>2023-11-07T04:48:53Z</time>
      </trkpt>
      <trkpt lat="47.92557" lon="6.66818">
        <ele>534</ele>
        <time>2023-11-07T04:49:07Z</time>
      </trkpt>
      <trkpt lat="47.92565" lon="6.66794">
        <ele>530</ele>
        <time>2023-11-07T04:49:16Z</time>
      </trkpt>
      <trkpt lat="47.9257" lon="6.66786">
        <ele>529</ele>
        <time>2023-11-07T04:49:19Z</time>
      </trkpt>
      <trkpt lat="47.92572" lon="6.66771">
        <ele>526</ele>
        <time>2023-11-07T04:49:25Z</time>
      </trkpt>
      <trkpt lat="47.92587" lon="6.66745">
        <ele>524</ele>
        <time>2023-11-07T04:49:36Z</time>
      </trkpt>
      <trkpt lat="47.92621" lon="6.66718">
        <ele>525</ele>
        <time>2023-11-07T04:49:55Z</time>
      </trkpt>
      <trkpt lat="47.92634" lon="6.66698">
        <ele>522</ele>
        <time>2023-11-07T04:50:05Z</time>
      </trkpt>
      <trkpt lat="47.92655" lon="6.6668">
        <ele>522</ele>
        <time>2023-11-07T04:50:17Z</time>
      </trkpt>
      <trkpt lat="47.9268" lon="6.66669">
        <ele>523</ele>
        <time>2023-11-07T04:50:30Z</time>
      </trkpt>
      <trkpt lat="47.92699" lon="6.66666">
        <ele>523</ele>
        <time>2023-11-07T04:50:39Z</time>
      </trkpt>
      <trkpt lat="47.92709" lon="6.6666">
        <ele>521</ele>
        <time>2023-11-07T04:50:45Z</time>
      </trkpt>
      <trkpt lat="47.92725" lon="6.66661">
        <ele>523</ele>
        <time>2023-11-07T04:50:53Z</time>
      </trkpt>
      <trkpt lat="47.92735" lon="6.66671">
        <ele>527</ele>
        <time>2023-11-07T04:50:59Z</time>
      </trkpt>
      <trkpt lat="47.92745" lon="6.66666">
        <ele>525</ele>
        <time>2023-11-07T04:51:04Z</time>
      </trkpt>
      <trkpt lat="47.92817" lon="6.66604">
        <ele>513</ele>
        <time>2023-11-07T04:51:46Z</time>
      </trkpt>
      <trkpt lat="47.92856" lon="6.66565">
        <ele>505</ele>
        <time>2023-11-07T04:52:09Z</time>
      </trkpt>
      <trkpt lat="47.92861" lon="6.66556">
        <ele>503</ele>
        <time>2023-11-07T04:52:13Z</time>
      </trkpt>
      <trkpt lat="47.92872" lon="6.66545">
        <ele>500</ele>
        <time>2023-11-07T04:52:20Z</time>
      </trkpt>
      <trkpt lat="47.92871" lon="6.66553">
        <ele>502</ele>
        <time>2023-11-07T04:52:22Z</time>
      </trkpt>
      <trkpt lat="47.92867" lon="6.66559">
        <ele>504</ele>
        <time>2023-11-07T04:52:25Z</time>
      </trkpt>
      <trkpt lat="47.92871" lon="6.66578">
        <ele>510</ele>
        <time>2023-11-07T04:52:32Z</time>
      </trkpt>
      <trkpt lat="47.92868" lon="6.66591">
        <ele>514</ele>
        <time>2023-11-07T04:52:37Z</time>
      </trkpt>
      <trkpt lat="47.9286" lon="6.66605">
        <ele>517</ele>
        <time>2023-11-07T04:52:43Z</time>
      </trkpt>
      <trkpt lat="47.92839" lon="6.6663">
        <ele>523</ele>
        <time>2023-11-07T04:52:56Z</time>
      </trkpt>
      <trkpt lat="47.92827" lon="6.66652">
        <ele>530</ele>
        <time>2023-11-07T04:53:06Z</time>
      </trkpt>
      <trkpt lat="47.92817" lon="6.66657">
        <ele>530</ele>
        <time>2023-11-07T04:53:11Z</time>
      </trkpt>
      <trkpt lat="47.92807" lon="6.66672">
        <ele>534</ele>
        <time>2023-11-07T04:53:18Z</time>
      </trkpt>
      <trkpt lat="47.92785" lon="6.66695">
        <ele>542</ele>
        <time>2023-11-07T04:53:31Z</time>
      </trkpt>
      <trkpt lat="47.92779" lon="6.66711">
        <ele>548</ele>
        <time>2023-11-07T04:53:38Z</time>
      </trkpt>
      <trkpt lat="47.92775" lon="6.66716">
        <ele>550</ele>
        <time>2023-11-07T04:53:40Z</time>
      </trkpt>
      <trkpt lat="47.92768" lon="6.66719">
        <ele>551</ele>
        <time>2023-11-07T04:53:44Z</time>
      </trkpt>
      <trkpt lat="47.92766" lon="6.66725">
        <ele>553</ele>
        <time>2023-11-07T04:53:46Z</time>
      </trkpt>
      <trkpt lat="47.92773" lon="6.66728">
        <ele>555</ele>
        <time>2023-11-07T04:53:50Z</time>
      </trkpt>
      <trkpt lat="47.92767" lon="6.66735">
        <ele>557</ele>
        <time>2023-11-07T04:53:54Z</time>
      </trkpt>
      <trkpt lat="47.9276" lon="6.66732">
        <ele>556</ele>
        <time>2023-11-07T04:53:57Z</time>
      </trkpt>
      <trkpt lat="47.92754" lon="6.66736">
        <ele>557</ele>
        <time>2023-11-07T04:54:01Z</time>
      </trkpt>
      <trkpt lat="47.92743" lon="6.66748">
        <ele>561</ele>
        <time>2023-11-07T04:54:07Z</time>
      </trkpt>
      <trkpt lat="47.92735" lon="6.66752">
        <ele>560</ele>
        <time>2023-11-07T04:54:12Z</time>
      </trkpt>
      <trkpt lat="47.92719" lon="6.66774">
        <ele>566</ele>
        <time>2023-11-07T04:54:22Z</time>
      </trkpt>
      <trkpt lat="47.92711" lon="6.66778">
        <ele>566</ele>
        <time>2023-11-07T04:54:27Z</time>
      </trkpt>
      <trkpt lat="47.92707" lon="6.66788">
        <ele>569</ele>
        <time>2023-11-07T04:54:31Z</time>
      </trkpt>
      <trkpt lat="47.92711" lon="6.66797">
        <ele>574</ele>
        <time>2023-11-07T04:54:34Z</time>
      </trkpt>
      <trkpt lat="47.92719" lon="6.66798">
        <ele>576</ele>
        <time>2023-11-07T04:54:38Z</time>
      </trkpt>
      <trkpt lat="47.92728" lon="6.66779">
        <ele>570</ele>
        <time>2023-11-07T04:54:46Z</time>
      </trkpt>
      <trkpt lat="47.92737" lon="6.66772">
        <ele>569</ele>
        <time>2023-11-07T04:54:51Z</time>
      </trkpt>
      <trkpt lat="47.92741" lon="6.66759">
        <ele>565</ele>
        <time>2023-11-07T04:54:56Z</time>
      </trkpt>
      <trkpt lat="47.92746" lon="6.66757">
        <ele>565</ele>
        <time>2023-11-07T04:54:58Z</time>
      </trkpt>
      <trkpt lat="47.92748" lon="6.66759">
        <ele>566</ele>
        <time>2023-11-07T04:55:00Z</time>
      </trkpt>
      <trkpt lat="47.92746" lon="6.66769">
        <ele>570</ele>
        <time>2023-11-07T04:55:03Z</time>
      </trkpt>
      <trkpt lat="47.9275" lon="6.66779">
        <ele>575</ele>
        <time>2023-11-07T04:55:07Z</time>
      </trkpt>
      <trkpt lat="47.9275" lon="6.66791">
        <ele>580</ele>
        <time>2023-11-07T04:55:11Z</time>
      </trkpt>
      <trkpt lat="47.92739" lon="6.66806">
        <ele>584</ele>
        <time>2023-11-07T04:55:19Z</time>
      </trkpt>
      <trkpt lat="47.92739" lon="6.66826">
        <ele>592</ele>
        <time>2023-11-07T04:55:25Z</time>
      </trkpt>
      <trkpt lat="47.92715" lon="6.66846">
        <ele>594</ele>
        <time>2023-11-07T04:55:39Z</time>
      </trkpt>
      <trkpt lat="47.92708" lon="6.66846">
        <ele>592</ele>
        <time>2023-11-07T04:55:43Z</time>
      </trkpt>
      <trkpt lat="47.92702" lon="6.6685">
        <ele>592</ele>
        <time>2023-11-07T04:55:46Z</time>
      </trkpt>
      <trkpt lat="47.92702" lon="6.66854">
        <ele>593</ele>
        <time>2023-11-07T04:55:47Z</time>
      </trkpt>
      <trkpt lat="47.92705" lon="6.66854">
        <ele>594</ele>
        <time>2023-11-07T04:55:49Z</time>
      </trkpt>
      <trkpt lat="47.92707" lon="6.6686">
        <ele>596</ele>
        <time>2023-11-07T04:55:51Z</time>
      </trkpt>
      <trkpt lat="47.92707" lon="6.6687">
        <ele>600</ele>
        <time>2023-11-07T04:55:54Z</time>
      </trkpt>
      <trkpt lat="47.92701" lon="6.66875">
        <ele>600</ele>
        <time>2023-11-07T04:55:58Z</time>
      </trkpt>
      <trkpt lat="47.92696" lon="6.66895">
        <ele>606</ele>
        <time>2023-11-07T04:56:05Z</time>
      </trkpt>
      <trkpt lat="47.92667" lon="6.6691">
        <ele>606</ele>
        <time>2023-11-07T04:56:20Z</time>
      </trkpt>
      <trkpt lat="47.92663" lon="6.66917">
        <ele>607</ele>
        <time>2023-11-07T04:56:23Z</time>
      </trkpt>
      <trkpt lat="47.92653" lon="6.6692">
        <ele>604</ele>
        <time>2023-11-07T04:56:28Z</time>
      </trkpt>
      <trkpt lat="47.92644" lon="6.6693">
        <ele>603</ele>
        <time>2023-11-07T04:56:34Z</time>
      </trkpt>
      <trkpt lat="47.92633" lon="6.66937">
        <ele>601</ele>
        <time>2023-11-07T04:56:40Z</time>
      </trkpt>
      <trkpt lat="47.92617" lon="6.6696">
        <ele>602</ele>
        <time>2023-11-07T04:56:51Z</time>
      </trkpt>
      <trkpt lat="47.92601" lon="6.66976">
        <ele>601</ele>
        <time>2023-11-07T04:57:01Z</time>
      </trkpt>
      <trkpt lat="47.92572" lon="6.67018">
        <ele>601</ele>
        <time>2023-11-07T04:57:21Z</time>
      </trkpt>
      <trkpt lat="47.92567" lon="6.67054">
        <ele>608</ele>
        <time>2023-11-07T04:57:33Z</time>
      </trkpt>
      <trkpt lat="47.92563" lon="6.67059">
        <ele>608</ele>
        <time>2023-11-07T04:57:36Z</time>
      </trkpt>
      <trkpt lat="47.92559" lon="6.67062">
        <ele>608</ele>
        <time>2023-11-07T04:57:38Z</time>
      </trkpt>
      <trkpt lat="47.92552" lon="6.67062">
        <ele>606</ele>
        <time>2023-11-07T04:57:42Z</time>
      </trkpt>
      <trkpt lat="47.92503" lon="6.67075">
        <ele>598</ele>
        <time>2023-11-07T04:58:07Z</time>
      </trkpt>
      <trkpt lat="47.92451" lon="6.67119">
        <ele>603</ele>
        <time>2023-11-07T04:58:37Z</time>
      </trkpt>
      <trkpt lat="47.92441" lon="6.6713">
        <ele>603</ele>
        <time>2023-11-07T04:58:43Z</time>
      </trkpt>
      <trkpt lat="47.9242" lon="6.67136">
        <ele>600</ele>
        <time>2023-11-07T04:58:53Z</time>
      </trkpt>
      <trkpt lat="47.92403" lon="6.67145">
        <ele>598</ele>
        <time>2023-11-07T04:59:02Z</time>
      </trkpt>
      <trkpt lat="47.92383" lon="6.67144">
        <ele>592</ele>
        <time>2023-11-07T04:59:12Z</time>
      </trkpt>
      <trkpt lat="47.92354" lon="6.67148">
        <ele>585</ele>
        <time>2023-11-07T04:59:27Z</time>
      </trkpt>
      <trkpt lat="47.92329" lon="6.67145">
        <ele>578</ele>
        <time>2023-11-07T04:59:40Z</time>
      </trkpt>
      <trkpt lat="47.92318" lon="6.6714">
        <ele>577</ele>
        <time>2023-11-07T04:59:45Z</time>
      </trkpt>
      <trkpt lat="47.92302" lon="6.67121">
        <ele>573</ele>
        <time>2023-11-07T04:59:56Z</time>
      </trkpt>
      <trkpt lat="47.92281" lon="6.67139">
        <ele>577</ele>
        <time>2023-11-07T05:00:08Z</time>
      </trkpt>
      <trkpt lat="47.92267" lon="6.67146">
        <ele>579</ele>
        <time>2023-11-07T05:00:15Z</time>
      </trkpt>
      <trkpt lat="47.92247" lon="6.67165">
        <ele>584</ele>
        <time>2023-11-07T05:00:27Z</time>
      </trkpt>
      <trkpt lat="47.92231" lon="6.67174">
        <ele>586</ele>
        <time>2023-11-07T05:00:36Z</time>
      </trkpt>
      <trkpt lat="47.9221" lon="6.67177">
        <ele>587</ele>
        <time>2023-11-07T05:00:46Z</time>
      </trkpt>
      <trkpt lat="47.92171" lon="6.67191">
        <ele>591</ele>
        <time>2023-11-07T05:01:06Z</time>
      </trkpt>
      <trkpt lat="47.92146" lon="6.67216">
        <ele>592</ele>
        <time>2023-11-07T05:01:21Z</time>
      </trkpt>
      <trkpt lat="47.92132" lon="6.67236">
        <ele>593</ele>
        <time>2023-11-07T05:01:31Z</time>
      </trkpt>
      <trkpt lat="47.92125" lon="6.67248">
        <ele>594</ele>
        <time>2023-11-07T05:01:36Z</time>
      </trkpt>
      <trkpt lat="47.92125" lon="6.67253">
        <ele>595</ele>
        <time>2023-11-07T05:01:38Z</time>
      </trkpt>
      <trkpt lat="47.92113" lon="6.67282">
        <ele>598</ele>
        <time>2023-11-07T05:01:49Z</time>
      </trkpt>
      <trkpt lat="47.92103" lon="6.67327">
        <ele>605</ele>
        <time>2023-11-07T05:02:05Z</time>
      </trkpt>
      <trkpt lat="47.92101" lon="6.67337">
        <ele>606</ele>
        <time>2023-11-07T05:02:09Z</time>
      </trkpt>
      <trkpt lat="47.92105" lon="6.67358">
        <ele>612</ele>
        <time>2023-11-07T05:02:16Z</time>
      </trkpt>
      <trkpt lat="47.92116" lon="6.67345">
        <ele>611</ele>
        <time>2023-11-07T05:02:23Z</time>
      </trkpt>
      <trkpt lat="47.92143" lon="6.67325">
        <ele>612</ele>
        <time>2023-11-07T05:02:38Z</time>
      </trkpt>
      <trkpt lat="47.92151" lon="6.67321">
        <ele>613</ele>
        <time>2023-11-07T05:02:42Z</time>
      </trkpt>
      <trkpt lat="47.9217" lon="6.67319">
        <ele>616</ele>
        <time>2023-11-07T05:02:52Z</time>
      </trkpt>
      <trkpt lat="47.9218" lon="6.67324">
        <ele>617</ele>
        <time>2023-11-07T05:02:57Z</time>
      </trkpt>
      <trkpt lat="47.92196" lon="6.67339">
        <ele>622</ele>
        <time>2023-11-07T05:03:07Z</time>
      </trkpt>
      <trkpt lat="47.9223" lon="6.67384">
        <ele>635</ele>
        <time>2023-11-07T05:03:29Z</time>
      </trkpt>
      <trkpt lat="47.92235" lon="6.67396">
        <ele>638</ele>
        <time>2023-11-07T05:03:34Z</time>
      </trkpt>
      <trkpt lat="47.92243" lon="6.67404">
        <ele>640</ele>
        <time>2023-11-07T05:03:39Z</time>
      </trkpt>
      <trkpt lat="47.9222" lon="6.67398">
        <ele>638</ele>
        <time>2023-11-07T05:03:51Z</time>
      </trkpt>
      <trkpt lat="47.9213" lon="6.67413">
        <ele>630</ele>
        <time>2023-11-07T05:04:36Z</time>
      </trkpt>
      <trkpt lat="47.92114" lon="6.67432">
        <ele>632</ele>
        <time>2023-11-07T05:04:46Z</time>
      </trkpt>
      <trkpt lat="47.92101" lon="6.67452">
        <ele>636</ele>
        <time>2023-11-07T05:04:56Z</time>
      </trkpt>
      <trkpt lat="47.92079" lon="6.67496">
        <ele>644</ele>
        <time>2023-11-07T05:05:14Z</time>
      </trkpt>
      <trkpt lat="47.92025" lon="6.67578">
        <ele>645</ele>
        <time>2023-11-07T05:05:52Z</time>
      </trkpt>
      <trkpt lat="47.92015" lon="6.67602">
        <ele>646</ele>
        <time>2023-11-07T05:06:02Z</time>
      </trkpt>
      <trkpt lat="47.92008" lon="6.67634">
        <ele>650</ele>
        <time>2023-11-07T05:06:13Z</time>
      </trkpt>
      <trkpt lat="47.9199" lon="6.67674">
        <ele>649</ele>
        <time>2023-11-07T05:06:29Z</time>
      </trkpt>
      <trkpt lat="47.91987" lon="6.67692">
        <ele>648</ele>
        <time>2023-11-07T05:06:36Z</time>
      </trkpt>
      <trkpt lat="47.91997" lon="6.67746">
        <ele>651</ele>
        <time>2023-11-07T05:06:54Z</time>
      </trkpt>
      <trkpt lat="47.92011" lon="6.67777">
        <ele>655</ele>
        <time>2023-11-07T05:07:07Z</time>
      </trkpt>
      <trkpt lat="47.9202" lon="6.67842">
        <ele>652</ele>
        <time>2023-11-07T05:07:29Z</time>
      </trkpt>
      <trkpt lat="47.92032" lon="6.67881">
        <ele>656</ele>
        <time>2023-11-07T05:07:44Z</time>
      </trkpt>
      <trkpt lat="47.92061" lon="6.67931">
        <ele>666</ele>
        <time>2023-11-07T05:08:06Z</time>
      </trkpt>
      <trkpt lat="47.92084" lon="6.67957">
        <ele>673</ele>
        <time>2023-11-07T05:08:20Z</time>
      </trkpt>
      <trkpt lat="47.921" lon="6.67968">
        <ele>680</ele>
        <time>2023-11-07T05:08:29Z</time>
      </trkpt>
      <trkpt lat="47.92109" lon="6.6797">
        <ele>684</ele>
        <time>2023-11-07T05:08:34Z</time>
      </trkpt>
      <trkpt lat="47.92125" lon="6.67983">
        <ele>690</ele>
        <time>2023-11-07T05:08:43Z</time>
      </trkpt>
      <trkpt lat="47.92157" lon="6.67997">
        <ele>702</ele>
        <time>2023-11-07T05:08:59Z</time>
      </trkpt>
      <trkpt lat="47.92158" lon="6.67989">
        <ele>704</ele>
        <time>2023-11-07T05:09:02Z</time>
      </trkpt>
      <trkpt lat="47.92138" lon="6.67887">
        <ele>707</ele>
        <time>2023-11-07T05:09:38Z</time>
      </trkpt>
      <trkpt lat="47.92132" lon="6.6775">
        <ele>715</ele>
        <time>2023-11-07T05:10:24Z</time>
      </trkpt>
      <trkpt lat="47.92139" lon="6.67717">
        <ele>715</ele>
        <time>2023-11-07T05:10:35Z</time>
      </trkpt>
      <trkpt lat="47.92139" lon="6.67704">
        <ele>714</ele>
        <time>2023-11-07T05:10:40Z</time>
      </trkpt>
      <trkpt lat="47.92148" lon="6.67692">
        <ele>716</ele>
        <time>2023-11-07T05:10:46Z</time>
      </trkpt>
      <trkpt lat="47.92173" lon="6.67682">
        <ele>722</ele>
        <time>2023-11-07T05:10:59Z</time>
      </trkpt>
      <trkpt lat="47.92183" lon="6.6765">
        <ele>716</ele>
        <time>2023-11-07T05:11:11Z</time>
      </trkpt>
      <trkpt lat="47.92205" lon="6.67629">
        <ele>710</ele>
        <time>2023-11-07T05:11:24Z</time>
      </trkpt>
      <trkpt lat="47.92214" lon="6.67629">
        <ele>710</ele>
        <time>2023-11-07T05:11:28Z</time>
      </trkpt>
      <trkpt lat="47.92277" lon="6.67648">
        <ele>711</ele>
        <time>2023-11-07T05:12:00Z</time>
      </trkpt>
      <trkpt lat="47.92307" lon="6.67663">
        <ele>711</ele>
        <time>2023-11-07T05:12:16Z</time>
      </trkpt>
      <trkpt lat="47.92327" lon="6.67669">
        <ele>709</ele>
        <time>2023-11-07T05:12:26Z</time>
      </trkpt>
      <trkpt lat="47.92352" lon="6.67681">
        <ele>712</ele>
        <time>2023-11-07T05:12:40Z</time>
      </trkpt>
      <trkpt lat="47.9239" lon="6.67688">
        <ele>713</ele>
        <time>2023-11-07T05:12:59Z</time>
      </trkpt>
      <trkpt lat="47.92429" lon="6.67681">
        <ele>714</ele>
        <time>2023-11-07T05:13:18Z</time>
      </trkpt>
      <trkpt lat="47.92434" lon="6.67648">
        <ele>708</ele>
        <time>2023-11-07T05:13:30Z</time>
      </trkpt>
      <trkpt lat="47.92436" lon="6.67608">
        <ele>701</ele>
        <time>2023-11-07T05:13:43Z</time>
      </trkpt>
      <trkpt lat="47.92445" lon="6.67575">
        <ele>698</ele>
        <time>2023-11-07T05:13:55Z</time>
      </trkpt>
      <trkpt lat="47.92446" lon="6.67562">
        <ele>696</ele>
        <time>2023-11-07T05:13:59Z</time>
      </trkpt>
      <trkpt lat="47.92478" lon="6.67493">
        <ele>692</ele>
        <time>2023-11-07T05:14:28Z</time>
      </trkpt>
      <trkpt lat="47.92492" lon="6.67471">
        <ele>692</ele>
        <time>2023-11-07T05:14:38Z</time>
      </trkpt>
      <trkpt lat="47.92515" lon="6.67422">
        <ele>687</ele>
        <time>2023-11-07T05:14:58Z</time>
      </trkpt>
      <trkpt lat="47.92569" lon="6.67375">
        <ele>691</ele>
        <time>2023-11-07T05:15:29Z</time>
      </trkpt>
      <trkpt lat="47.92602" lon="6.67335">
        <ele>687</ele>
        <time>2023-11-07T05:15:50Z</time>
      </trkpt>
      <trkpt lat="47.92611" lon="6.67327">
        <ele>686</ele>
        <time>2023-11-07T05:15:56Z</time>
      </trkpt>
      <trkpt lat="47.92628" lon="6.67323">
        <ele>687</ele>
        <time>2023-11-07T05:16:04Z</time>
      </trkpt>
      <trkpt lat="47.92656" lon="6.67304">
        <ele>687</ele>
        <time>2023-11-07T05:16:20Z</time>
      </trkpt>
      <trkpt lat="47.92675" lon="6.67236">
        <ele>675</ele>
        <time>2023-11-07T05:16:44Z</time>
      </trkpt>
      <trkpt lat="47.92669" lon="6.6716">
        <ele>656</ele>
        <time>2023-11-07T05:17:10Z</time>
      </trkpt>
      <trkpt lat="47.92669" lon="6.67132">
        <ele>651</ele>
        <time>2023-11-07T05:17:19Z</time>
      </trkpt>
      <trkpt lat="47.92681" lon="6.67074">
        <ele>643</ele>
        <time>2023-11-07T05:17:40Z</time>
      </trkpt>
      <trkpt lat="47.92682" lon="6.6705">
        <ele>639</ele>
        <time>2023-11-07T05:17:48Z</time>
      </trkpt>
      <trkpt lat="47.92689" lon="6.67039">
        <ele>639</ele>
        <time>2023-11-07T05:17:53Z</time>
      </trkpt>
      <trkpt lat="47.92704" lon="6.67031">
        <ele>639</ele>
        <time>2023-11-07T05:18:01Z</time>
      </trkpt>
      <trkpt lat="47.92718" lon="6.67035">
        <ele>642</ele>
        <time>2023-11-07T05:18:08Z</time>
      </trkpt>
      <trkpt lat="47.92734" lon="6.67032">
        <ele>643</ele>
        <time>2023-11-07T05:18:16Z</time>
      </trkpt>
      <trkpt lat="47.92762" lon="6.67032">
        <ele>646</ele>
        <time>2023-11-07T05:18:30Z</time>
      </trkpt>
      <trkpt lat="47.92778" lon="6.67035">
        <ele>648</ele>
        <time>2023-11-07T05:18:38Z</time>
      </trkpt>
      <trkpt lat="47.92791" lon="6.67032">
        <ele>648</ele>
        <time>2023-11-07T05:18:45Z</time>
      </trkpt>
      <trkpt lat="47.92806" lon="6.67034">
        <ele>649</ele>
        <time>2023-11-07T05:18:52Z</time>
      </trkpt>
      <trkpt lat="47.92835" lon="6.67027">
        <ele>649</ele>
        <time>2023-11-07T05:19:07Z</time>
      </trkpt>
      <trkpt lat="47.92855" lon="6.67029">
        <ele>650</ele>
        <time>2023-11-07T05:19:17Z</time>
      </trkpt>
      <trkpt lat="47.92867" lon="6.67027">
        <ele>650</ele>
        <time>2023-11-07T05:19:23Z</time>
      </trkpt>
      <trkpt lat="47.929" lon="6.67037">
        <ele>652</ele>
        <time>2023-11-07T05:19:40Z</time>
      </trkpt>
      <trkpt lat="47.92915" lon="6.67037">
        <ele>652</ele>
        <time>2023-11-07T05:19:47Z</time>
      </trkpt>
      <trkpt lat="47.92984" lon="6.67017">
        <ele>647</ele>
        <time>2023-11-07T05:20:23Z</time>
      </trkpt>
      <trkpt lat="47.92993" lon="6.67027">
        <ele>648</ele>
        <time>2023-11-07T05:20:28Z</time>
      </trkpt>
      <trkpt lat="47.93038" lon="6.67095">
        <ele>643</ele>
        <time>2023-11-07T05:21:00Z</time>
      </trkpt>
      <trkpt lat="47.93048" lon="6.67135">
        <ele>641</ele>
        <time>2023-11-07T05:21:15Z</time>
      </trkpt>
      <trkpt lat="47.93055" lon="6.67229">
        <ele>646</ele>
        <time>2023-11-07T05:21:46Z</time>
      </trkpt>
      <trkpt lat="47.93079" lon="6.67284">
        <ele>646</ele>
        <time>2023-11-07T05:22:08Z</time>
      </trkpt>
      <trkpt lat="47.9312" lon="6.67346">
        <ele>642</ele>
        <time>2023-11-07T05:22:38Z</time>
      </trkpt>
      <trkpt lat="47.93132" lon="6.67359">
        <ele>639</ele>
        <time>2023-11-07T05:22:45Z</time>
      </trkpt>
      <trkpt lat="47.9319" lon="6.67473">
        <ele>627</ele>
        <time>2023-11-07T05:23:33Z</time>
      </trkpt>
      <trkpt lat="47.93196" lon="6.67491">
        <ele>626</ele>
        <time>2023-11-07T05:23:40Z</time>
      </trkpt>
      <trkpt lat="47.93226" lon="6.67552">
        <ele>621</ele>
        <time>2023-11-07T05:24:05Z</time>
      </trkpt>
      <trkpt lat="47.9324" lon="6.67587">
        <ele>620</ele>
        <time>2023-11-07T05:24:19Z</time>
      </trkpt>
      <trkpt lat="47.93244" lon="6.67593">
        <ele>620</ele>
        <time>2023-11-07T05:24:22Z</time>
      </trkpt>
      <trkpt lat="47.93258" lon="6.67599">
        <ele>617</ele>
        <time>2023-11-07T05:24:29Z</time>
      </trkpt>
      <trkpt lat="47.93271" lon="6.67608">
        <ele>614</ele>
        <time>2023-11-07T05:24:36Z</time>
      </trkpt>
      <trkpt lat="47.93276" lon="6.67632">
        <ele>616</ele>
        <time>2023-11-07T05:24:44Z</time>
      </trkpt>
      <trkpt lat="47.93284" lon="6.67633">
        <ele>614</ele>
        <time>2023-11-07T05:24:48Z</time>
      </trkpt>
      <trkpt lat="47.93293" lon="6.67628">
        <ele>610</ele>
        <time>2023-11-07T05:24:53Z</time>
      </trkpt>
      <trkpt lat="47.93298" lon="6.67631">
        <ele>609</ele>
        <time>2023-11-07T05:24:56Z</time>
      </trkpt>
      <trkpt lat="47.93317" lon="6.6765">
        <ele>607</ele>
        <time>2023-11-07T05:25:07Z</time>
      </trkpt>
      <trkpt lat="47.9333" lon="6.67671">
        <ele>606</ele>
        <time>2023-11-07T05:25:17Z</time>
      </trkpt>
      <trkpt lat="47.9334" lon="6.67702">
        <ele>609</ele>
        <time>2023-11-07T05:25:29Z</time>
      </trkpt>
      <trkpt lat="47.93341" lon="6.67712">
        <ele>610</ele>
        <time>2023-11-07T05:25:32Z</time>
      </trkpt>
      <trkpt lat="47.93358" lon="6.6776">
        <ele>613</ele>
        <time>2023-11-07T05:25:50Z</time>
      </trkpt>
      <trkpt lat="47.93374" lon="6.67855">
        <ele>622</ele>
        <time>2023-11-07T05:26:23Z</time>
      </trkpt>
      <trkpt lat="47.93384" lon="6.67877">
        <ele>623</ele>
        <time>2023-11-07T05:26:32Z</time>
      </trkpt>
      <trkpt lat="47.93398" lon="6.67919">
        <ele>626</ele>
        <time>2023-11-07T05:26:48Z</time>
      </trkpt>
      <trkpt lat="47.93415" lon="6.67997">
        <ele>635</ele>
        <time>2023-11-07T05:27:15Z</time>
      </trkpt>
      <trkpt lat="47.93423" lon="6.68022">
        <ele>638</ele>
        <time>2023-11-07T05:27:24Z</time>
      </trkpt>
      <trkpt lat="47.93438" lon="6.68039">
        <ele>638</ele>
        <time>2023-11-07T05:27:34Z</time>
      </trkpt>
      <trkpt lat="47.93478" lon="6.68106">
        <ele>642</ele>
        <time>2023-11-07T05:28:04Z</time>
      </trkpt>
      <trkpt lat="47.9349" lon="6.6813">
        <ele>644</ele>
        <time>2023-11-07T05:28:14Z</time>
      </trkpt>
      <trkpt lat="47.93498" lon="6.68161">
        <ele>648</ele>
        <time>2023-11-07T05:28:25Z</time>
      </trkpt>
      <trkpt lat="47.9352" lon="6.68217">
        <ele>652</ele>
        <time>2023-11-07T05:28:47Z</time>
      </trkpt>
      <trkpt lat="47.93549" lon="6.68266">
        <ele>651</ele>
        <time>2023-11-07T05:29:09Z</time>
      </trkpt>
      <trkpt lat="47.93556" lon="6.68292">
        <ele>653</ele>
        <time>2023-11-07T05:29:18Z</time>
      </trkpt>
      <trkpt lat="47.93568" lon="6.68358">
        <ele>658</ele>
        <time>2023-11-07T05:29:41Z</time>
      </trkpt>
      <trkpt lat="47.93577" lon="6.68375">
        <ele>657</ele>
        <time>2023-11-07T05:29:48Z</time>
      </trkpt>
      <trkpt lat="47.93577" lon="6.68404">
        <ele>660</ele>
        <time>2023-11-07T05:29:58Z</time>
      </trkpt>
      <trkpt lat="47.9359" lon="6.68438">
        <ele>659</ele>
        <time>2023-11-07T05:30:11Z</time>
      </trkpt>
      <trkpt lat="47.93613" lon="6.68552">
        <ele>662</ele>
        <time>2023-11-07T05:30:51Z</time>
      </trkpt>
      <trkpt lat="47.9363" lon="6.68605">
        <ele>662</ele>
        <time>2023-11-07T05:31:11Z</time>
      </trkpt>
      <trkpt lat="47.93645" lon="6.68711">
        <ele>669</ele>
        <time>2023-11-07T05:31:47Z</time>
      </trkpt>
      <trkpt lat="47.93655" lon="6.68737">
        <ele>669</ele>
        <time>2023-11-07T05:31:57Z</time>
      </trkpt>
      <trkpt lat="47.9367" lon="6.68755">
        <ele>668</ele>
        <time>2023-11-07T05:32:07Z</time>
      </trkpt>
      <trkpt lat="47.93689" lon="6.68759">
        <ele>669</ele>
        <time>2023-11-07T05:32:16Z</time>
      </trkpt>
      <trkpt lat="47.93733" lon="6.68737">
        <ele>667</ele>
        <time>2023-11-07T05:32:40Z</time>
      </trkpt>
      <trkpt lat="47.93773" lon="6.68731">
        <ele>668</ele>
        <time>2023-11-07T05:33:00Z</time>
      </trkpt>
      <trkpt lat="47.93791" lon="6.68739">
        <ele>670</ele>
        <time>2023-11-07T05:33:09Z</time>
      </trkpt>
      <trkpt lat="47.93796" lon="6.68769">
        <ele>674</ele>
        <time>2023-11-07T05:33:20Z</time>
      </trkpt>
      <trkpt lat="47.938" lon="6.68779">
        <ele>675</ele>
        <time>2023-11-07T05:33:23Z</time>
      </trkpt>
      <trkpt lat="47.93822" lon="6.68809">
        <ele>680</ele>
        <time>2023-11-07T05:33:38Z</time>
      </trkpt>
      <trkpt lat="47.93818" lon="6.68817">
        <ele>681</ele>
        <time>2023-11-07T05:33:42Z</time>
      </trkpt>
      <trkpt lat="47.93819" lon="6.68823">
        <ele>682</ele>
        <time>2023-11-07T05:33:44Z</time>
      </trkpt>
      <trkpt lat="47.93813" lon="6.68846">
        <ele>684</ele>
        <time>2023-11-07T05:33:52Z</time>
      </trkpt>
      <trkpt lat="47.93808" lon="6.68853">
        <ele>685</ele>
        <time>2023-11-07T05:33:55Z</time>
      </trkpt>
      <trkpt lat="47.93805" lon="6.68864">
        <ele>685</ele>
        <time>2023-11-07T05:33:59Z</time>
      </trkpt>
      <trkpt lat="47.938" lon="6.68891">
        <ele>688</ele>
        <time>2023-11-07T05:34:09Z</time>
      </trkpt>
      <trkpt lat="47.93808" lon="6.68909">
        <ele>690</ele>
        <time>2023-11-07T05:34:16Z</time>
      </trkpt>
      <trkpt lat="47.93825" lon="6.68924">
        <ele>692</ele>
        <time>2023-11-07T05:34:26Z</time>
      </trkpt>
      <trkpt lat="47.93838" lon="6.68941">
        <ele>693</ele>
        <time>2023-11-07T05:34:35Z</time>
      </trkpt>
      <trkpt lat="47.93861" lon="6.69017">
        <ele>696</ele>
        <time>2023-11-07T05:35:03Z</time>
      </trkpt>
      <trkpt lat="47.9389" lon="6.68981">
        <ele>692</ele>
        <time>2023-11-07T05:35:21Z</time>
      </trkpt>
      <trkpt lat="47.93893" lon="6.68961">
        <ele>692</ele>
        <time>2023-11-07T05:35:28Z</time>
      </trkpt>
      <trkpt lat="47.93925" lon="6.68921">
        <ele>689</ele>
        <time>2023-11-07T05:35:49Z</time>
      </trkpt>
      <trkpt lat="47.9393" lon="6.68893">
        <ele>687</ele>
        <time>2023-11-07T05:35:59Z</time>
      </trkpt>
      <trkpt lat="47.93934" lon="6.68886">
        <ele>686</ele>
        <time>2023-11-07T05:36:02Z</time>
      </trkpt>
      <trkpt lat="47.93941" lon="6.68859">
        <ele>685</ele>
        <time>2023-11-07T05:36:12Z</time>
      </trkpt>
      <trkpt lat="47.93941" lon="6.68855">
        <ele>685</ele>
        <time>2023-11-07T05:36:13Z</time>
      </trkpt>
      <trkpt lat="47.93929" lon="6.68832">
        <ele>686</ele>
        <time>2023-11-07T05:36:23Z</time>
      </trkpt>
      <trkpt lat="47.93895" lon="6.68812">
        <ele>683</ele>
        <time>2023-11-07T05:36:41Z</time>
      </trkpt>
      <trkpt lat="47.93885" lon="6.68789">
        <ele>679</ele>
        <time>2023-11-07T05:36:50Z</time>
      </trkpt>
      <trkpt lat="47.93886" lon="6.68783">
        <ele>678</ele>
        <time>2023-11-07T05:36:52Z</time>
      </trkpt>
      <trkpt lat="47.93881" lon="6.68773">
        <ele>676</ele>
        <time>2023-11-07T05:36:57Z</time>
      </trkpt>
      <trkpt lat="47.9388" lon="6.68758">
        <ele>674</ele>
        <time>2023-11-07T05:37:02Z</time>
      </trkpt>
      <trkpt lat="47.93872" lon="6.68732">
        <ele>669</ele>
        <time>2023-11-07T05:37:11Z</time>
      </trkpt>
      <trkpt lat="47.9386" lon="6.68715">
        <ele>666</ele>
        <time>2023-11-07T05:37:19Z</time>
      </trkpt>
      <trkpt lat="47.93853" lon="6.68693">
        <ele>662</ele>
        <time>2023-11-07T05:37:28Z</time>
      </trkpt>
      <trkpt lat="47.93848" lon="6.68662">
        <ele>657</ele>
        <time>2023-11-07T05:37:38Z</time>
      </trkpt>
      <trkpt lat="47.93864" lon="6.68623">
        <ele>648</ele>
        <time>2023-11-07T05:37:54Z</time>
      </trkpt>
      <trkpt lat="47.93889" lon="6.68578">
        <ele>637</ele>
        <time>2023-11-07T05:38:13Z</time>
      </trkpt>
      <trkpt lat="47.93908" lon="6.68558">
        <ele>630</ele>
        <time>2023-11-07T05:38:25Z</time>
      </trkpt>
      <trkpt lat="47.93943" lon="6.68592">
        <ele>632</ele>
        <time>2023-11-07T05:38:46Z</time>
      </trkpt>
      <trkpt lat="47.93964" lon="6.68619">
        <ele>634</ele>
        <time>2023-11-07T05:39:00Z</time>
      </trkpt>
      <trkpt lat="47.93966" lon="6.6862">
        <ele>633</ele>
        <time>2023-11-07T05:39:01Z</time>
      </trkpt>
      <trkpt lat="47.93981" lon="6.68613">
        <ele>630</ele>
        <time>2023-11-07T05:39:09Z</time>
      </trkpt>
      <trkpt lat="47.93999" lon="6.68641">
        <ele>632</ele>
        <time>2023-11-07T05:39:22Z</time>
      </trkpt>
      <trkpt lat="47.94007" lon="6.68661">
        <ele>634</ele>
        <time>2023-11-07T05:39:29Z</time>
      </trkpt>
      <trkpt lat="47.94025" lon="6.68692">
        <ele>638</ele>
        <time>2023-11-07T05:39:43Z</time>
      </trkpt>
      <trkpt lat="47.94048" lon="6.68696">
        <ele>634</ele>
        <time>2023-11-07T05:39:55Z</time>
      </trkpt>
      <trkpt lat="47.94062" lon="6.68695">
        <ele>631</ele>
        <time>2023-11-07T05:40:02Z</time>
      </trkpt>
      <trkpt lat="47.94081" lon="6.6869">
        <ele>626</ele>
        <time>2023-11-07T05:40:11Z</time>
      </trkpt>
      <trkpt lat="47.94089" lon="6.68684">
        <ele>623</ele>
        <time>2023-11-07T05:40:16Z</time>
      </trkpt>
      <trkpt lat="47.94087" lon="6.68661">
        <ele>619</ele>
        <time>2023-11-07T05:40:24Z</time>
      </trkpt>
      <trkpt lat="47.94079" lon="6.68636">
        <ele>614</ele>
        <time>2023-11-07T05:40:33Z</time>
      </trkpt>
      <trkpt lat="47.94075" lon="6.68606">
        <ele>607</ele>
        <time>2023-11-07T05:40:43Z</time>
      </trkpt>
      <trkpt lat="47.94063" lon="6.68578">
        <ele>604</ele>
        <time>2023-11-07T05:40:54Z</time>
      </trkpt>
      <trkpt lat="47.94056" lon="6.68566">
        <ele>604</ele>
        <time>2023-11-07T05:41:00Z</time>
      </trkpt>
      <trkpt lat="47.94049" lon="6.6856">
        <ele>605</ele>
        <time>2023-11-07T05:41:04Z</time>
      </trkpt>
      <trkpt lat="47.94038" lon="6.6854">
        <ele>604</ele>
        <time>2023-11-07T05:41:12Z</time>
      </trkpt>
      <trkpt lat="47.94033" lon="6.68507">
        <ele>599</ele>
        <time>2023-11-07T05:41:24Z</time>
      </trkpt>
      <trkpt lat="47.94026" lon="6.68487">
        <ele>598</ele>
        <time>2023-11-07T05:41:31Z</time>
      </trkpt>
      <trkpt lat="47.94007" lon="6.68449">
        <ele>594</ele>
        <time>2023-11-07T05:41:47Z</time>
      </trkpt>
      <trkpt lat="47.93999" lon="6.68391">
        <ele>586</ele>
        <time>2023-11-07T05:42:07Z</time>
      </trkpt>
      <trkpt lat="47.93986" lon="6.68376">
        <ele>585</ele>
        <time>2023-11-07T05:42:15Z</time>
      </trkpt>
      <trkpt lat="47.93972" lon="6.68353">
        <ele>583</ele>
        <time>2023-11-07T05:42:26Z</time>
      </trkpt>
      <trkpt lat="47.93981" lon="6.68339">
        <ele>581</ele>
        <time>2023-11-07T05:42:32Z</time>
      </trkpt>
      <trkpt lat="47.93985" lon="6.68324">
        <ele>580</ele>
        <time>2023-11-07T05:42:38Z</time>
      </trkpt>
      <trkpt lat="47.93985" lon="6.68305">
        <ele>579</ele>
        <time>2023-11-07T05:42:44Z</time>
      </trkpt>
      <trkpt lat="47.93981" lon="6.68282">
        <ele>577</ele>
        <time>2023-11-07T05:42:52Z</time>
      </trkpt>
      <trkpt lat="47.93978" lon="6.68214">
        <ele>573</ele>
        <time>2023-11-07T05:43:15Z</time>
      </trkpt>
      <trkpt lat="47.93974" lon="6.68199">
        <ele>572</ele>
        <time>2023-11-07T05:43:20Z</time>
      </trkpt>
      <trkpt lat="47.93967" lon="6.68186">
        <ele>570</ele>
        <time>2023-11-07T05:43:26Z</time>
      </trkpt>
      <trkpt lat="47.93962" lon="6.68149">
        <ele>568</ele>
        <time>2023-11-07T05:43:38Z</time>
      </trkpt>
      <trkpt lat="47.93962" lon="6.68103">
        <ele>570</ele>
        <time>2023-11-07T05:43:54Z</time>
      </trkpt>
      <trkpt lat="47.93971" lon="6.68056">
        <ele>573</ele>
        <time>2023-11-07T05:44:10Z</time>
      </trkpt>
      <trkpt lat="47.93987" lon="6.68081">
        <ele>578</ele>
        <time>2023-11-07T05:44:22Z</time>
      </trkpt>
      <trkpt lat="47.94028" lon="6.68168">
        <ele>587</ele>
        <time>2023-11-07T05:44:58Z</time>
      </trkpt>
      <trkpt lat="47.9403" lon="6.68135">
        <ele>591</ele>
        <time>2023-11-07T05:45:09Z</time>
      </trkpt>
      <trkpt lat="47.94028" lon="6.6812">
        <ele>591</ele>
        <time>2023-11-07T05:45:14Z</time>
      </trkpt>
      <trkpt lat="47.93984" lon="6.68008">
        <ele>577</ele>
        <time>2023-11-07T05:45:57Z</time>
      </trkpt>
      <trkpt lat="47.93977" lon="6.67964">
        <ele>578</ele>
        <time>2023-11-07T05:46:12Z</time>
      </trkpt>
      <trkpt lat="47.93963" lon="6.67934">
        <ele>575</ele>
        <time>2023-11-07T05:46:25Z</time>
      </trkpt>
      <trkpt lat="47.93945" lon="6.6785">
        <ele>574</ele>
        <time>2023-11-07T05:46:54Z</time>
      </trkpt>
      <trkpt lat="47.93928" lon="6.67683">
        <ele>571</ele>
        <time>2023-11-07T05:47:51Z</time>
      </trkpt>
      <trkpt lat="47.939" lon="6.67673">
        <ele>559</ele>
        <time>2023-11-07T05:48:05Z</time>
      </trkpt>
      <trkpt lat="47.93895" lon="6.67527">
        <ele>560</ele>
        <time>2023-11-07T05:48:54Z</time>
      </trkpt>
      <trkpt lat="47.93904" lon="6.67464">
        <ele>561</ele>
        <time>2023-11-07T05:49:16Z</time>
      </trkpt>
      <trkpt lat="47.939" lon="6.67434">
        <ele>559</ele>
        <time>2023-11-07T05:49:26Z</time>
      </trkpt>
      <trkpt lat="47.93888" lon="6.67403">
        <ele>555</ele>
        <time>2023-11-07T05:49:38Z</time>
      </trkpt>
      <trkpt lat="47.9388" lon="6.67371">
        <ele>553</ele>
        <time>2023-11-07T05:49:50Z</time>
      </trkpt>
      <trkpt lat="47.9388" lon="6.67337">
        <ele>553</ele>
        <time>2023-11-07T05:50:01Z</time>
      </trkpt>
      <trkpt lat="47.93884" lon="6.67281">
        <ele>554</ele>
        <time>2023-11-07T05:50:20Z</time>
      </trkpt>
      <trkpt lat="47.93876" lon="6.67256">
        <ele>552</ele>
        <time>2023-11-07T05:50:29Z</time>
      </trkpt>
      <trkpt lat="47.93865" lon="6.67238">
        <ele>549</ele>
        <time>2023-11-07T05:50:37Z</time>
      </trkpt>
      <trkpt lat="47.93857" lon="6.67198">
        <ele>548</ele>
        <time>2023-11-07T05:50:51Z</time>
      </trkpt>
      <trkpt lat="47.9385" lon="6.67144">
        <ele>546</ele>
        <time>2023-11-07T05:51:10Z</time>
      </trkpt>
      <trkpt lat="47.93839" lon="6.67097">
        <ele>540</ele>
        <time>2023-11-07T05:51:26Z</time>
      </trkpt>
      <trkpt lat="47.93815" lon="6.66954">
        <ele>534</ele>
        <time>2023-11-07T05:52:16Z</time>
      </trkpt>
      <trkpt lat="47.93812" lon="6.66878">
        <ele>532</ele>
        <time>2023-11-07T05:52:41Z</time>
      </trkpt>
      <trkpt lat="47.93825" lon="6.66809">
        <ele>532</ele>
        <time>2023-11-07T05:53:05Z</time>
      </trkpt>
      <trkpt lat="47.93826" lon="6.66783">
        <ele>529</ele>
        <time>2023-11-07T05:53:14Z</time>
      </trkpt>
      <trkpt lat="47.93841" lon="6.66731">
        <ele>528</ele>
        <time>2023-11-07T05:53:33Z</time>
      </trkpt>
      <trkpt lat="47.93835" lon="6.66702">
        <ele>525</ele>
        <time>2023-11-07T05:53:43Z</time>
      </trkpt>
      <trkpt lat="47.93835" lon="6.66692">
        <ele>525</ele>
        <time>2023-11-07T05:53:47Z</time>
      </trkpt>
      <trkpt lat="47.93831" lon="6.66685">
        <ele>524</ele>
        <time>2023-11-07T05:53:50Z</time>
      </trkpt>
      <trkpt lat="47.9383" lon="6.66668">
        <ele>524</ele>
        <time>2023-11-07T05:53:55Z</time>
      </trkpt>
      <trkpt lat="47.93861" lon="6.66634">
        <ele>532</ele>
        <time>2023-11-07T05:54:15Z</time>
      </trkpt>
      <trkpt lat="47.93864" lon="6.6662">
        <ele>533</ele>
        <time>2023-11-07T05:54:20Z</time>
      </trkpt>
      <trkpt lat="47.93865" lon="6.66593">
        <ele>534</ele>
        <time>2023-11-07T05:54:29Z</time>
      </trkpt>
      <trkpt lat="47.93855" lon="6.66571">
        <ele>532</ele>
        <time>2023-11-07T05:54:38Z</time>
      </trkpt>
      <trkpt lat="47.93837" lon="6.66548">
        <ele>530</ele>
        <time>2023-11-07T05:54:50Z</time>
      </trkpt>
      <trkpt lat="47.93816" lon="6.66534">
        <ele>526</ele>
        <time>2023-11-07T05:55:01Z</time>
      </trkpt>
      <trkpt lat="47.93805" lon="6.66514">
        <ele>524</ele>
        <time>2023-11-07T05:55:10Z</time>
      </trkpt>
      <trkpt lat="47.93795" lon="6.66485">
        <ele>522</ele>
        <time>2023-11-07T05:55:21Z</time>
      </trkpt>
      <trkpt lat="47.93779" lon="6.66455">
        <ele>519</ele>
        <time>2023-11-07T05:55:33Z</time>
      </trkpt>
      <trkpt lat="47.93767" lon="6.66435">
        <ele>516</ele>
        <time>2023-11-07T05:55:42Z</time>
      </trkpt>
      <trkpt lat="47.93753" lon="6.66424">
        <ele>513</ele>
        <time>2023-11-07T05:55:50Z</time>
      </trkpt>
      <trkpt lat="47.93737" lon="6.66402">
        <ele>510</ele>
        <time>2023-11-07T05:56:01Z</time>
      </trkpt>
      <trkpt lat="47.93732" lon="6.66382">
        <ele>509</ele>
        <time>2023-11-07T05:56:08Z</time>
      </trkpt>
      <trkpt lat="47.93739" lon="6.66324">
        <ele>514</ele>
        <time>2023-11-07T05:56:28Z</time>
      </trkpt>
      <trkpt lat="47.93728" lon="6.66291">
        <ele>510</ele>
        <time>2023-11-07T05:56:41Z</time>
      </trkpt>
      <trkpt lat="47.93728" lon="6.66261">
        <ele>510</ele>
        <time>2023-11-07T05:56:51Z</time>
      </trkpt>
      <trkpt lat="47.93722" lon="6.66225">
        <ele>508</ele>
        <time>2023-11-07T05:57:03Z</time>
      </trkpt>
      <trkpt lat="47.93723" lon="6.66075">
        <ele>512</ele>
        <time>2023-11-07T05:57:53Z</time>
      </trkpt>
      <trkpt lat="47.93716" lon="6.66038">
        <ele>510</ele>
        <time>2023-11-07T05:58:06Z</time>
      </trkpt>
      <trkpt lat="47.93712" lon="6.65867">
        <ele>507</ele>
        <time>2023-11-07T05:59:04Z</time>
      </trkpt>
      <trkpt lat="47.937" lon="6.65833">
        <ele>504</ele>
        <time>2023-11-07T05:59:16Z</time>
      </trkpt>
      <trkpt lat="47.93701" lon="6.65809">
        <ele>505</ele>
        <time>2023-11-07T05:59:25Z</time>
      </trkpt>
      <trkpt lat="47.93616" lon="6.65806">
        <ele>493</ele>
        <time>2023-11-07T06:00:07Z</time>
      </trkpt>
      <trkpt lat="47.93569" lon="6.65813">
        <ele>484</ele>
        <time>2023-11-07T06:00:31Z</time>
      </trkpt>
      <trkpt lat="47.93529" lon="6.65809">
        <ele>479</ele>
        <time>2023-11-07T06:00:51Z</time>
      </trkpt>
      <trkpt lat="47.93498" lon="6.65816">
        <ele>473</ele>
        <time>2023-11-07T06:01:06Z</time>
      </trkpt>
      <trkpt lat="47.93476" lon="6.65836">
        <ele>467</ele>
        <time>2023-11-07T06:01:19Z</time>
      </trkpt>
      <trkpt lat="47.93472" lon="6.65876">
        <ele>462</ele>
        <time>2023-11-07T06:01:33Z</time>
      </trkpt>
      <trkpt lat="47.93462" lon="6.65896">
        <ele>459</ele>
        <time>2023-11-07T06:01:41Z</time>
      </trkpt>
      <trkpt lat="47.93428" lon="6.65906">
        <ele>454</ele>
        <time>2023-11-07T06:01:59Z</time>
      </trkpt>
      <trkpt lat="47.93413" lon="6.65916">
        <ele>451</ele>
        <time>2023-11-07T06:02:07Z</time>
      </trkpt>
      <trkpt lat="47.9339" lon="6.65914">
        <ele>448</ele>
        <time>2023-11-07T06:02:18Z</time>
      </trkpt>
      <trkpt lat="47.93363" lon="6.65933">
        <ele>443</ele>
        <time>2023-11-07T06:02:33Z</time>
      </trkpt>
      <trkpt lat="47.93352" lon="6.65956">
        <ele>441</ele>
        <time>2023-11-07T06:02:43Z</time>
      </trkpt>
      <trkpt lat="47.93334" lon="6.65975">
        <ele>438</ele>
        <time>2023-11-07T06:02:54Z</time>
      </trkpt>
      <trkpt lat="47.93325" lon="6.65994">
        <ele>438</ele>
        <time>2023-11-07T06:03:02Z</time>
      </trkpt>
      <trkpt lat="47.93311" lon="6.65998">
        <ele>437</ele>
        <time>2023-11-07T06:03:09Z</time>
      </trkpt>
      <trkpt lat="47.93287" lon="6.65997">
        <ele>436</ele>
        <time>2023-11-07T06:03:21Z</time>
      </trkpt>
      <trkpt lat="47.93266" lon="6.66001">
        <ele>436</ele>
        <time>2023-11-07T06:03:31Z</time>
      </trkpt>
      <trkpt lat="47.93251" lon="6.66007">
        <ele>436</ele>
        <time>2023-11-07T06:03:39Z</time>
      </trkpt>
      <trkpt lat="47.93241" lon="6.66005">
        <ele>435</ele>
        <time>2023-11-07T06:03:44Z</time>
      </trkpt>
      <trkpt lat="47.93231" lon="6.65979">
        <ele>434</ele>
        <time>2023-11-07T06:03:54Z</time>
      </trkpt>
      <trkpt lat="47.93214" lon="6.65987">
        <ele>433</ele>
        <time>2023-11-07T06:04:03Z</time>
      </trkpt>
      <trkpt lat="47.93196" lon="6.6599">
        <ele>433</ele>
        <time>2023-11-07T06:04:12Z</time>
      </trkpt>
      <trkpt lat="47.93174" lon="6.65998">
        <ele>432</ele>
        <time>2023-11-07T06:04:24Z</time>
      </trkpt>
      <trkpt lat="47.93154" lon="6.66009">
        <ele>433</ele>
        <time>2023-11-07T06:04:34Z</time>
      </trkpt>
      <trkpt lat="47.93078" lon="6.66017">
        <ele>437</ele>
        <time>2023-11-07T06:05:12Z</time>
      </trkpt>
      <trkpt lat="47.9306" lon="6.66013">
        <ele>435</ele>
        <time>2023-11-07T06:05:21Z</time>
      </trkpt>
      <trkpt lat="47.93034" lon="6.66012">
        <ele>434</ele>
        <time>2023-11-07T06:05:34Z</time>
      </trkpt>
      <trkpt lat="47.93017" lon="6.66025">
        <ele>435</ele>
        <time>2023-11-07T06:05:44Z</time>
      </trkpt>
      <trkpt lat="47.92967" lon="6.66081">
        <ele>434</ele>
        <time>2023-11-07T06:06:15Z</time>
      </trkpt>
      <trkpt lat="47.92948" lon="6.66093">
        <ele>431</ele>
        <time>2023-11-07T06:06:26Z</time>
      </trkpt>
      <trkpt lat="47.92931" lon="6.66114">
        <ele>429</ele>
        <time>2023-11-07T06:06:37Z</time>
      </trkpt>
      <trkpt lat="47.92913" lon="6.66143">
        <ele>428</ele>
        <time>2023-11-07T06:06:50Z</time>
      </trkpt>
      <trkpt lat="47.929" lon="6.66122">
        <ele>426</ele>
        <time>2023-11-07T06:07:00Z</time>
      </trkpt>
      <trkpt lat="47.92861" lon="6.66031">
        <ele>424</ele>
        <time>2023-11-07T06:07:36Z</time>
      </trkpt>
      <trkpt lat="47.92853" lon="6.6599">
        <ele>424</ele>
        <time>2023-11-07T06:07:50Z</time>
      </trkpt>
      <trkpt lat="47.9285" lon="6.65964">
        <ele>424</ele>
        <time>2023-11-07T06:07:59Z</time>
      </trkpt>
      <trkpt lat="47.92852" lon="6.65961">
        <ele>424</ele>
        <time>2023-11-07T06:08:00Z</time>
      </trkpt>
      <trkpt lat="47.9282" lon="6.65917">
        <ele>425</ele>
        <time>2023-11-07T06:08:22Z</time>
      </trkpt>
      <trkpt lat="47.92782" lon="6.65959">
        <ele>424</ele>
        <time>2023-11-07T06:08:46Z</time>
      </trkpt>
      <trkpt lat="47.92777" lon="6.65941">
        <ele>424</ele>
        <time>2023-11-07T06:08:52Z</time>
      </trkpt>
    </trkseg>
  </trk>
</gpx>